Durango, CO (81301)

10:05 AM MDT on July 27, 2016 (GMT -0600)
Edgemont Highlands | | Change Station

Elev 7484 ft 37.31 °N, 107.79 °W | Updated 29 seconds ago

Clear
Clear
75.9 °F
Feels Like 78 °F
N
2.0
Wind Variable Wind from SSW
Gusts 6.0 mph

Today
High -- | Low -- °F
--% Chance of Precip.
Yesterday
High -- | Low -- °F
Precip. -- in
Pressure 30.07 in
Visibility 10.0 miles
Clouds Clear
Heat Index 78 °F
Dew Point 47 °F
Humidity 36%
Rainfall Not available.
Snow Depth Not available.
6:12 AM 8:22 PM
Last Quarter, 42% visible
METAR KDRO 271553Z AUTO 08003KT 10SM CLR 23/09 A3034 RMK AO2 SLP183 T02330089
Pressure 30.07 in
Visibility 10.0 miles
Clouds Clear
Heat Index 78 °F
Dew Point 47 °F
Humidity 36%
Rainfall Not available.
Snow Depth Not available.
6:12 AM 8:22 PM
Last Quarter, 42% visible
METAR KDRO 271553Z AUTO 08003KT 10SM CLR 23/09 A3034 RMK AO2 SLP183 T02330089

10-Day Weather Forecast

Almanac

Astronomy

Jul. 27, 2016 Rise Set
Actual Time
Civil Twilight
Nautical Twilight
Astronomical Twilight
Moon
Length of Visible Light
Length of Day
Tomorrow will be .
, % of the Moon is Illuminated

Today's Extremes

State Highs State Lows

Community

WunderPhotos

Upload Photos

1,927,877 photos uploaded!

WunderBlog® & News

Nearby

Air Quality

  Air Quality AQ Index Pollutant
Not available.

Snow Depth

Station Depth Elevation

Earthquake Activity

City Distance Mag. Time & Date
Minimum magnitude displayed is 2.5.

Coastal Water Temperatures

Place Temperature

Stations

Nearby Weather Stations

Station Location Temp. Windchill Dew Point Humidity Wind Precip. Elev Updated Type
                   

Watches & Warnings

There are currently no watches in effect.